Time;durP1;ratioP1;P1;durP2;ratioP2;P2;SDS_P1;SDS_P2;PMS_P1;PMS_P2;Temp;Humidity;BMP_temperature;BMP_pressure;BME280_temperature;BME280_humidity;BME280_pressure;Samples;Min_cycle;Max_cycle;Signal;HPM_P1;HPM_P2
2021/12/01 00:01:30;;;;;;;0.40;0.40;;;;;;;4.98;100.00;94740.06;5056027;28;20205;-51
2021/12/01 00:03:55;;;;;;;1.20;0.50;;;;;;;5.01;100.00;94745.50;5056011;28;20202;-50
2021/12/01 00:06:21;;;;;;;0.23;0.23;;;;;;;5.02;100.00;94740.84;5056282;28;20197;-52
2021/12/01 00:08:46;;;;;;;0.20;0.20;;;;;;;5.01;100.00;94750.91;5056330;28;20699;-68
2021/12/01 00:11:12;;;;;;;0.20;0.20;;;;;;;5.06;100.00;94737.00;5056129;28;20198;-56
2021/12/01 00:13:38;;;;;;;0.20;0.20;;;;;;;5.09;100.00;94735.44;5056249;28;20205;-57
2021/12/01 00:16:04;;;;;;;0.30;0.30;;;;;;;5.09;100.00;94735.44;5056042;28;20198;-58
2021/12/01 00:18:29;;;;;;;0.30;0.30;;;;;;;5.09;100.00;94735.44;5056072;28;20198;-56
2021/12/01 00:20:57;;;;;;;0.30;0.30;;;;;;;5.05;100.00;94731.97;5055902;28;20224;-57
2021/12/01 00:23:23;;;;;;;0.30;0.30;;;;;;;5.02;100.00;94746.25;5055689;28;20208;-59
2021/12/01 00:25:49;;;;;;;0.30;0.30;;;;;;;5.00;100.00;94729.63;5055363;28;20185;-57
2021/12/01 00:28:14;;;;;;;0.30;0.30;;;;;;;4.98;100.00;94729.22;5055852;28;20277;-58
2021/12/01 00:30:40;;;;;;;0.73;0.40;;;;;;;4.98;100.00;94726.53;5056200;28;20280;-59
2021/12/01 00:33:09;;;;;;;1.20;0.40;;;;;;;4.95;100.00;94719.97;5055697;28;20200;-60
2021/12/01 00:35:34;;;;;;;0.90;0.40;;;;;;;4.89;100.00;94715.31;5055348;28;20201;-60
2021/12/01 00:37:59;;;;;;;0.43;0.43;;;;;;;4.85;100.00;94714.53;5055703;28;20228;-60
2021/12/01 00:40:25;;;;;;;0.20;0.20;;;;;;;4.81;100.00;94714.50;5055138;28;20273;-59
2021/12/01 00:42:51;;;;;;;0.20;0.20;;;;;;;4.82;100.00;94709.88;5055423;28;20224;-59
2021/12/01 00:45:19;;;;;;;0.40;0.40;;;;;;;4.84;100.00;94702.94;5055206;28;20200;-59
2021/12/01 00:47:49;;;;;;;0.37;0.37;;;;;;;4.85;100.00;94703.72;5055386;28;20210;-50
2021/12/01 00:50:31;;;;;;;0.17;0.17;;;;;;;4.87;100.00;94706.81;5055635;28;20205;-48
2021/12/01 00:53:00;;;;;;;0.30;0.30;;;;;;;4.88;100.00;94709.13;5054986;28;20201;-52
2021/12/01 00:55:26;;;;;;;0.30;0.30;;;;;;;4.88;100.00;94702.97;5054743;28;20257;-47
2021/12/01 00:57:52;;;;;;;0.30;0.30;;;;;;;4.93;100.00;94707.97;5055323;28;20201;-48
2021/12/01 01:00:21;;;;;;;0.30;0.30;;;;;;;4.92;100.00;94703.75;5054694;28;20258;-51
2021/12/01 01:02:47;;;;;;;0.37;0.37;;;;;;;4.94;100.00;94706.81;5054628;28;20220;-59
2021/12/01 01:05:13;;;;;;;0.30;0.30;;;;;;;4.95;100.00;94709.13;5054781;28;20201;-68
2021/12/01 01:07:38;;;;;;;0.30;0.30;;;;;;;4.99;100.00;94709.16;5054863;28;20197;-61
2021/12/01 01:10:17;;;;;;;0.40;0.40;;;;;;;5.02;100.00;94698.34;5055296;28;20198;-62
2021/12/01 01:18:12;;;;;;;0.30;0.30;;;;;;;5.10;100.00;94699.13;5056058;28;20209;-62
2021/12/01 01:20:38;;;;;;;0.30;0.30;;;;;;;5.17;100.00;94699.13;5054677;28;20241;-61
2021/12/01 01:23:03;;;;;;;0.37;0.37;;;;;;;5.20;100.00;94699.13;5054729;28;20198;-56
2021/12/01 01:25:30;;;;;;;0.30;0.30;;;;;;;5.26;100.00;94697.59;5054359;28;20208;-55
2021/12/01 01:27:55;;;;;;;0.93;0.30;;;;;;;5.29;100.00;94686.00;5054523;28;20224;-57
2021/12/01 01:30:21;;;;;;;0.30;0.30;;;;;;;5.33;100.00;94696.81;5055113;28;20269;-57
2021/12/01 01:32:47;;;;;;;0.30;0.30;;;;;;;5.33;100.00;94686.00;5054237;28;20221;-56
2021/12/01 01:35:15;;;;;;;0.50;0.40;;;;;;;5.37;100.00;94681.34;5054539;28;20193;-56
2021/12/01 01:37:41;;;;;;;0.40;0.40;;;;;;;5.36;100.00;94685.22;5054134;28;20229;-58
2021/12/01 01:40:08;;;;;;;0.27;0.27;;;;;;;5.40;100.00;94680.56;5054539;28;20197;-57
2021/12/01 01:42:34;;;;;;;0.20;0.20;;;;;;;5.45;100.00;94672.06;5054087;28;20197;-58
2021/12/01 01:44:59;;;;;;;0.53;0.30;;;;;;;5.46;100.00;94679.03;5054044;28;20251;-47
2021/12/01 01:47:24;;;;;;;0.40;0.40;;;;;;;5.48;100.00;94661.25;5053748;28;20217;-50
2021/12/01 01:52:47;;;;;;;0.30;0.30;;;;;;;5.50;100.00;94661.59;5010435;28;20210;-50
2021/12/01 01:55:13;;;;;;;0.30;0.30;;;;;;;5.52;100.00;94659.31;5054013;28;20225;-50
2021/12/01 01:57:38;;;;;;;0.27;0.27;;;;;;;5.53;100.00;94651.94;5053990;28;20233;-52
2021/12/01 02:00:08;;;;;;;0.20;0.20;;;;;;;5.56;100.00;94667.41;5054223;28;20300;-47
2021/12/01 02:02:34;;;;;;;0.20;0.20;;;;;;;5.53;100.00;94646.50;5053589;28;20240;-58
2021/12/01 02:05:00;;;;;;;0.30;0.30;;;;;;;5.56;100.00;94651.94;5054181;28;20198;-57
2021/12/01 02:07:25;;;;;;;0.10;0.10;;;;;;;5.55;100.00;94638.78;5053428;28;20205;-58
2021/12/01 02:09:51;;;;;;;0.30;0.30;;;;;;;5.56;100.00;94645.75;5054115;28;20213;-58
2021/12/01 02:12:16;;;;;;;0.30;0.30;;;;;;;5.62;100.00;94647.69;5053997;28;20197;-58
2021/12/01 02:14:41;;;;;;;0.20;0.20;;;;;;;5.61;100.00;94637.25;5053457;28;20237;-58
2021/12/01 02:17:07;;;;;;;0.43;0.43;;;;;;;5.61;100.00;94635.28;5053472;28;20198;-57
2021/12/01 02:19:37;;;;;;;0.37;0.37;;;;;;;5.60;100.00;94635.69;5053315;28;20214;-66
2021/12/01 02:22:02;;;;;;;0.30;0.30;;;;;;;5.62;100.00;94623.31;5053309;28;20200;-68
2021/12/01 02:24:28;;;;;;;0.30;0.30;;;;;;;5.68;100.00;94621.75;5053260;28;20198;-67
2021/12/01 02:26:53;;;;;;;0.27;0.27;;;;;;;5.66;100.00;94607.84;5053703;28;20206;-67
2021/12/01 02:29:23;;;;;;;0.20;0.20;;;;;;;5.69;100.00;94615.16;5053713;28;20198;-69
2021/12/01 02:31:50;;;;;;;0.20;0.20;;;;;;;5.76;100.00;94611.66;5053247;28;20221;-67
2021/12/01 02:34:19;;;;;;;0.20;0.20;;;;;;;5.76;100.00;94606.25;5053967;28;20335;-67
2021/12/01 02:36:48;;;;;;;0.20;0.20;;;;;;;5.77;100.00;94607.78;5053391;28;20201;-59
2021/12/01 02:39:15;;;;;;;0.30;0.30;;;;;;;5.81;100.00;94603.16;5053331;28;20221;-48
2021/12/01 02:41:42;;;;;;;0.50;0.50;;;;;;;5.75;100.00;94600.06;5053424;28;20213;-49
2021/12/01 02:44:09;;;;;;;0.30;0.30;;;;;;;5.87;100.00;94585.34;5053035;28;20265;-50
2021/12/01 02:46:36;;;;;;;0.40;0.40;;;;;;;5.84;100.00;94575.28;5053034;28;20296;-49
2021/12/01 02:49:01;;;;;;;0.30;0.30;;;;;;;5.85;100.00;94574.91;5053178;28;20214;-48
2021/12/01 02:51:28;;;;;;;0.20;0.20;;;;;;;5.82;100.00;94572.19;5052912;28;20189;-49
2021/12/01 02:53:54;;;;;;;0.20;0.20;;;;;;;5.88;100.00;94562.50;5052992;28;20312;-46
2021/12/01 02:56:22;;;;;;;0.30;0.30;;;;;;;5.87;100.00;94558.25;5053123;28;20251;-58
2021/12/01 02:58:48;;;;;;;0.20;0.20;;;;;;;5.87;100.00;94544.72;5053192;28;20289;-57
2021/12/01 03:01:18;;;;;;;0.40;0.40;;;;;;;5.90;100.00;94535.81;5053280;28;20206;-57
2021/12/01 03:03:45;;;;;;;0.30;0.30;;;;;;;5.88;100.00;94551.66;5052355;28;20292;-58
2021/12/01 03:06:11;;;;;;;0.30;0.30;;;;;;;5.88;100.00;94548.97;5053002;28;20209;-57
2021/12/01 03:08:39;;;;;;;0.27;0.27;;;;;;;5.83;100.00;94552.09;5053183;28;20198;-56
2021/12/01 03:11:05;;;;;;;0.20;0.20;;;;;;;5.90;100.00;94541.22;5052878;28;20197;-57
2021/12/01 03:13:30;;;;;;;0.30;0.30;;;;;;;5.91;100.00;94540.06;5052646;28;20299;-60
2021/12/01 03:15:56;;;;;;;0.30;0.30;;;;;;;5.89;100.00;94550.50;5052645;28;20213;-59
2021/12/01 03:18:22;;;;;;;0.40;0.40;;;;;;;5.92;100.00;94536.16;5052516;28;20193;-60
2021/12/01 03:20:50;;;;;;;0.20;0.20;;;;;;;5.87;100.00;94533.88;5052007;28;20219;-60
2021/12/01 03:23:15;;;;;;;0.20;0.20;;;;;;;5.84;100.00;94531.94;5052735;28;20201;-59
2021/12/01 03:25:41;;;;;;;0.13;0.13;;;;;;;5.90;100.00;94530.38;5052431;28;20209;-60
2021/12/01 03:28:08;;;;;;;0.30;0.30;;;;;;;5.89;100.00;94536.94;5053029;28;20182;-60
2021/12/01 03:30:37;;;;;;;0.50;0.50;;;;;;;5.89;100.00;94540.44;5052476;28;20205;-59
2021/12/01 03:33:04;;;;;;;0.37;0.37;;;;;;;5.87;100.00;94536.59;5053285;28;20206;-62
2021/12/01 03:35:30;;;;;;;0.30;0.30;;;;;;;5.86;100.00;94535.03;5052780;28;20255;-62
2021/12/01 03:37:56;;;;;;;0.63;0.30;;;;;;;5.87;100.00;94531.16;5052654;28;20687;-62
2021/12/01 03:40:22;;;;;;;0.20;0.20;;;;;;;5.83;100.00;94531.16;5052735;28;20634;-63
2021/12/01 03:42:47;;;;;;;0.30;0.30;;;;;;;5.86;100.00;94530.38;5052185;28;20198;-62
2021/12/01 03:45:14;;;;;;;0.23;0.23;;;;;;;5.85;100.00;94528.06;5052432;28;20205;-62
2021/12/01 03:47:39;;;;;;;0.40;0.40;;;;;;;5.85;100.00;94523.44;5052319;28;20256;-62
2021/12/01 03:50:05;;;;;;;0.30;0.30;;;;;;;5.85;100.00;94515.31;5052468;28;20198;-51
2021/12/01 03:52:32;;;;;;;0.33;0.30;;;;;;;5.82;100.00;94523.44;5052149;28;20244;-67
2021/12/01 03:54:58;;;;;;;0.20;0.20;;;;;;;5.83;100.00;94508.75;5053624;28;20200;-66
2021/12/01 03:57:24;;;;;;;0.77;0.40;;;;;;;5.89;100.00;94512.56;5052366;28;20178;-67
2021/12/01 03:59:49;;;;;;;0.30;0.30;;;;;;;5.96;100.00;94499.00;5052505;28;20252;-68
2021/12/01 04:02:15;;;;;;;0.67;0.40;;;;;;;5.97;100.00;94495.88;5051797;28;20209;-68
2021/12/01 04:04:41;;;;;;;0.50;0.50;;;;;;;5.98;100.00;94496.66;5051977;28;20242;-67
2021/12/01 04:07:06;;;;;;;0.50;0.50;;;;;;;6.04;100.00;94495.06;5051825;28;20230;-67
2021/12/01 04:09:34;;;;;;;0.40;0.40;;;;;;;5.99;100.00;94498.19;5052117;28;20203;-59
2021/12/01 04:12:00;;;;;;;0.80;0.50;;;;;;;5.99;100.00;94488.16;5052071;28;20198;-50
2021/12/01 04:14:25;;;;;;;0.73;0.50;;;;;;;5.97;100.00;94484.28;5052143;28;20198;-52
2021/12/01 04:16:51;;;;;;;0.83;0.40;;;;;;;5.93;100.00;94481.59;5051994;28;20202;-53
2021/12/01 04:19:17;;;;;;;0.50;0.50;;;;;;;5.93;100.00;94475.41;5052041;28;20256;-51
2021/12/01 04:21:43;;;;;;;0.87;0.73;;;;;;;5.92;100.00;94479.28;5052091;28;20202;-52
2021/12/01 04:24:08;;;;;;;1.27;0.90;;;;;;;5.92;100.00;94476.56;5052364;28;20216;-50
2021/12/01 04:26:35;;;;;;;1.37;1.13;;;;;;;5.92;100.00;94471.16;5051900;28;20178;-51
2021/12/01 04:29:03;;;;;;;1.00;0.87;;;;;;;5.92;100.00;94457.59;5052449;28;20206;-61
2021/12/01 04:31:29;;;;;;;0.60;0.60;;;;;;;5.93;100.00;94453.72;5054877;28;20205;-60
2021/12/01 04:33:55;;;;;;;2.47;1.77;;;;;;;5.90;100.00;94462.66;5055457;28;20198;-60
2021/12/01 04:36:26;;;;;;;0.80;0.80;;;;;;;5.93;100.00;94454.50;5055154;28;20209;-61
2021/12/01 04:38:52;;;;;;;1.20;0.77;;;;;;;5.98;100.00;94450.59;5055654;28;20297;-60
2021/12/01 04:41:18;;;;;;;0.63;0.60;;;;;;;6.01;100.00;94444.41;5055135;28;20194;-60
2021/12/01 04:43:44;;;;;;;0.47;0.43;;;;;;;6.01;100.00;94449.81;5055887;28;20280;-58
2021/12/01 04:46:10;;;;;;;0.50;0.50;;;;;;;6.01;100.00;94439.00;5055457;28;20216;-62
2021/12/01 04:48:38;;;;;;;1.00;0.60;;;;;;;6.03;100.00;94442.06;5055578;28;20194;-58
2021/12/01 04:51:03;;;;;;;0.60;0.60;;;;;;;6.04;100.00;94438.16;5055175;28;20197;-57
2021/12/01 04:53:32;;;;;;;0.47;0.43;;;;;;;6.09;100.00;94440.47;5054866;28;20284;-56
2021/12/01 04:55:57;;;;;;;0.60;0.60;;;;;;;6.05;100.00;94423.47;5054924;28;20186;-58
2021/12/01 04:58:23;;;;;;;0.60;0.60;;;;;;;6.08;100.00;94422.66;5055253;28;20215;-54
2021/12/01 05:00:48;;;;;;;1.40;0.60;;;;;;;6.10;100.00;94420.31;5054899;28;20224;-58
2021/12/01 05:03:13;;;;;;;0.50;0.50;;;;;;;6.14;100.00;94418.34;5054783;28;20218;-59
2021/12/01 05:05:39;;;;;;;0.60;0.60;;;;;;;6.14;100.00;94410.22;5055180;28;20205;-62
2021/12/01 05:08:04;;;;;;;0.43;0.43;;;;;;;6.14;100.00;94399.38;5054752;28;20206;-63
2021/12/01 05:10:30;;;;;;;1.57;1.10;;;;;;;6.19;100.00;94417.94;5054594;28;20274;-62
2021/12/01 05:12:55;;;;;;;0.70;0.70;;;;;;;6.14;100.00;94415.66;5054823;28;20284;-64
2021/12/01 05:15:20;;;;;;;1.10;1.00;;;;;;;6.13;100.00;94419.53;5054611;28;20198;-62
2021/12/01 05:17:46;;;;;;;0.57;0.57;;;;;;;6.08;100.00;94412.59;5054476;28;20293;-63
2021/12/01 05:20:12;;;;;;;0.60;0.60;;;;;;;6.06;100.00;94414.16;5054356;28;20216;-50
2021/12/01 05:22:39;;;;;;;0.60;0.60;;;;;;;6.08;100.00;94418.00;5055191;28;20252;-48
2021/12/01 05:25:05;;;;;;;0.70;0.70;;;;;;;6.08;100.00;94400.97;5054051;28;20185;-52
2021/12/01 05:27:31;;;;;;;0.80;0.50;;;;;;;6.06;100.00;94389.78;5054973;28;20252;-53
2021/12/01 05:29:57;;;;;;;0.80;0.80;;;;;;;6.04;100.00;94386.69;5055581;28;20194;-53
2021/12/01 05:32:22;;;;;;;0.50;0.50;;;;;;;5.98;100.00;94380.91;5054139;28;20217;-51
2021/12/01 05:34:48;;;;;;;0.50;0.50;;;;;;;6.02;100.00;94389.03;5054256;28;20194;-48
2021/12/01 05:37:13;;;;;;;0.87;0.50;;;;;;;6.03;100.00;94387.84;5054094;28;20201;-47
2021/12/01 05:39:41;;;;;;;0.70;0.70;;;;;;;6.04;100.00;94367.72;5054212;28;20210;-60
2021/12/01 05:42:07;;;;;;;0.50;0.50;;;;;;;6.06;100.00;94387.84;5053176;28;20289;-55
2021/12/01 05:44:34;;;;;;;0.70;0.70;;;;;;;6.02;100.00;94380.91;5054433;28;20228;-54
2021/12/01 05:47:01;;;;;;;0.87;0.60;;;;;;;6.02;100.00;94380.91;5054231;28;20215;-55
2021/12/01 05:49:26;;;;;;;1.93;0.77;;;;;;;5.98;100.00;94389.03;5053796;28;20198;-54
2021/12/01 05:51:51;;;;;;;0.50;0.50;;;;;;;5.92;100.00;94381.75;5054389;28;20259;-54
2021/12/01 05:54:17;;;;;;;1.67;1.20;;;;;;;5.90;100.00;94375.97;5053635;28;20309;-56
2021/12/01 05:56:42;;;;;;;0.90;0.70;;;;;;;5.84;100.00;94364.00;5053675;28;20246;-47
2021/12/01 05:59:08;;;;;;;1.03;0.90;;;;;;;5.81;100.00;94364.81;5053771;28;20224;-59
2021/12/01 06:01:33;;;;;;;1.43;0.67;;;;;;;5.73;100.00;94363.28;5054233;28;20248;-58
2021/12/01 06:03:59;;;;;;;1.50;0.90;;;;;;;5.61;100.00;94364.50;5053605;28;20209;-58
2021/12/01 06:06:24;;;;;;;2.40;0.90;;;;;;;5.55;100.00;94359.91;5053338;28;20214;-59
2021/12/01 06:08:49;;;;;;;2.83;2.30;;;;;;;5.48;100.00;94359.97;5053664;28;20335;-58
2021/12/01 06:11:15;;;;;;;10.50;6.67;;;;;;;5.39;100.00;94349.56;5053455;28;20250;-58
2021/12/01 06:13:42;;;;;;;2.10;1.00;;;;;;;5.36;100.00;94346.88;5053151;28;20209;-57
2021/12/01 06:16:08;;;;;;;1.57;0.80;;;;;;;5.34;100.00;94341.09;5053615;28;20201;-67
2021/12/01 06:18:33;;;;;;;1.87;0.90;;;;;;;5.31;100.00;94339.16;5053704;28;20198;-49
2021/12/01 06:21:00;;;;;;;0.73;0.73;;;;;;;5.31;100.00;94331.03;5053562;28;20237;-51
2021/12/01 06:23:26;;;;;;;0.97;0.70;;;;;;;5.27;100.00;94333.00;5053378;28;20208;-51
2021/12/01 06:25:51;;;;;;;1.67;1.53;;;;;;;5.25;100.00;94322.56;5053087;28;20177;-51
2021/12/01 06:28:17;;;;;;;1.57;0.80;;;;;;;5.25;100.00;94321.81;5052946;28;20233;-51
2021/12/01 06:30:42;;;;;;;0.90;0.90;;;;;;;5.23;100.00;94314.09;5053538;28;20194;-55
2021/12/01 06:33:08;;;;;;;2.93;1.00;;;;;;;5.20;100.00;94314.09;5053889;28;20213;-54
2021/12/01 06:35:34;;;;;;;2.03;0.90;;;;;;;5.18;100.00;94311.03;5053392;28;20269;-65
2021/12/01 06:38:00;;;;;;;1.33;0.83;;;;;;;5.17;100.00;94304.09;5053172;28;20202;-61
2021/12/01 06:40:26;;;;;;;1.67;0.80;;;;;;;5.14;100.00;94299.47;5052909;28;20226;-61
2021/12/01 06:42:52;;;;;;;2.20;1.00;;;;;;;5.13;100.00;94306.06;5053273;28;20209;-60
2021/12/01 06:45:18;;;;;;;1.17;1.00;;;;;;;5.12;100.00;94299.06;5052990;28;20198;-60
2021/12/01 06:47:44;;;;;;;2.63;1.30;;;;;;;5.12;100.00;94290.97;5052868;28;20252;-60
2021/12/01 06:50:10;;;;;;;1.00;0.90;;;;;;;5.11;100.00;94282.09;5053132;28;20237;-60
2021/12/01 06:52:38;;;;;;;0.90;0.90;;;;;;;5.12;100.00;94274.72;5052956;28;20194;-65
2021/12/01 06:55:04;;;;;;;0.90;0.80;;;;;;;5.11;100.00;94276.69;5052694;28;20205;-56
2021/12/01 06:57:30;;;;;;;0.67;0.67;;;;;;;5.14;100.00;94272.41;5052669;28;20221;-71
2021/12/01 06:59:55;;;;;;;0.80;0.80;;;;;;;5.15;100.00;94263.91;5052451;28;20245;-70
2021/12/01 07:02:21;;;;;;;1.00;0.90;;;;;;;5.18;100.00;94259.63;5052355;28;20241;-69
2021/12/01 07:04:46;;;;;;;1.73;0.87;;;;;;;5.20;100.00;94251.88;5052606;28;20194;-69
2021/12/01 07:07:12;;;;;;;2.67;1.57;;;;;;;5.23;100.00;94253.78;5052862;28;20198;-69
2021/12/01 07:09:38;;;;;;;2.87;1.90;;;;;;;5.26;100.00;94263.81;5052375;28;20194;-68
2021/12/01 07:12:03;;;;;;;2.03;1.83;;;;;;;5.29;100.00;94257.63;5052694;28;20194;-57
2021/12/01 07:14:29;;;;;;;1.17;1.07;;;;;;;5.30;100.00;94253.75;5052519;28;20197;-54
2021/12/01 07:16:55;;;;;;;1.53;1.33;;;;;;;5.34;100.00;94254.47;5052271;28;20209;-50
2021/12/01 07:19:20;;;;;;;1.33;1.00;;;;;;;5.32;100.00;94254.13;5052239;28;20236;-54
2021/12/01 07:21:46;;;;;;;0.90;0.80;;;;;;;5.38;100.00;94260.63;5052917;28;20241;-52
2021/12/01 07:24:11;;;;;;;0.87;0.87;;;;;;;5.42;100.00;94253.25;5052273;28;20205;-51
2021/12/01 07:26:37;;;;;;;3.07;0.90;;;;;;;5.46;100.00;94251.31;5052573;28;20193;-47
2021/12/01 07:29:03;;;;;;;1.47;0.93;;;;;;;5.52;100.00;94257.84;5053066;28;20198;-51
2021/12/01 07:31:28;;;;;;;1.47;1.20;;;;;;;5.59;100.00;94263.19;5052478;28;20194;-51
2021/12/01 07:33:54;;;;;;;1.30;1.20;;;;;;;5.64;100.00;94252.69;5052229;28;20267;-51
2021/12/01 07:36:19;;;;;;;2.87;2.10;;;;;;;5.71;100.00;94249.94;5052460;28;20205;-52
2021/12/01 07:38:45;;;;;;;1.07;1.00;;;;;;;5.76;100.00;94244.09;5051861;28;20214;-50
2021/12/01 07:41:10;;;;;;;2.17;1.40;;;;;;;5.82;100.00;94241.75;5052116;28;20198;-52
2021/12/01 07:43:36;;;;;;;2.00;1.30;;;;;;;5.85;100.00;94230.09;5052149;28;20237;-52
2021/12/01 07:46:01;;;;;;;1.93;1.50;;;;;;;5.95;100.00;94224.59;5052019;28;20213;-53
2021/12/01 07:48:28;;;;;;;1.80;1.43;;;;;;;6.31;100.00;94217.63;5052140;28;20229;-69
2021/12/01 07:50:55;;;;;;;1.30;1.10;;;;;;;6.31;100.00;94220.31;5052221;28;20192;-58
2021/12/01 07:53:21;;;;;;;2.27;1.30;;;;;;;6.18;100.00;94216.63;5052721;28;20193;-58
2021/12/01 07:55:47;;;;;;;1.27;0.90;;;;;;;6.09;100.00;94207.44;5052639;28;20194;-59
2021/12/01 07:58:12;;;;;;;0.93;0.90;;;;;;;6.04;100.00;94194.31;5051965;28;20236;-58
2021/12/01 08:00:37;;;;;;;1.43;0.90;;;;;;;6.00;100.00;94205.19;5052456;28;20209;-58
2021/12/01 08:03:03;;;;;;;0.87;0.83;;;;;;;5.99;100.00;94208.31;5051915;28;20206;-58
2021/12/01 08:05:29;;;;;;;3.47;1.73;;;;;;;6.00;100.00;94199.78;5053711;28;20233;-59
2021/12/01 08:07:55;;;;;;;1.93;1.60;;;;;;;5.97;100.00;94199.78;5055862;28;20232;-60
2021/12/01 08:10:21;;;;;;;0.87;0.87;;;;;;;5.96;100.00;94192.84;5055864;28;20296;-57
2021/12/01 08:12:46;;;;;;;0.70;0.70;;;;;;;5.89;100.00;94187.50;5056007;28;20327;-58
2021/12/01 08:15:12;;;;;;;1.27;0.90;;;;;;;5.94;100.00;94198.66;5055807;28;20194;-57
2021/12/01 08:17:37;;;;;;;0.80;0.80;;;;;;;5.94;100.00;94187.09;5055877;28;20197;-57
2021/12/01 08:20:04;;;;;;;1.00;0.83;;;;;;;5.99;100.00;94192.03;5055656;28;20232;-56
2021/12/01 08:22:30;;;;;;;0.70;0.70;;;;;;;6.02;100.00;94183.13;5055611;28;20202;-58
2021/12/01 08:24:57;;;;;;;1.30;0.90;;;;;;;6.06;100.00;94186.56;5055344;28;20212;-57
2021/12/01 08:27:24;;;;;;;0.80;0.80;;;;;;;6.16;100.00;94193.81;5055175;28;20197;-65
2021/12/01 08:29:50;;;;;;;0.70;0.70;;;;;;;6.45;100.00;94193.06;5055422;28;20658;-65
2021/12/01 08:32:15;;;;;;;1.67;1.57;;;;;;;7.38;100.00;94177.00;5055162;28;20195;-65
2021/12/01 08:34:41;;;;;;;0.73;0.73;;;;;;;8.29;100.00;94187.06;5055478;28;20306;-65
2021/12/01 08:37:10;;;;;;;0.90;0.80;;;;;;;9.02;100.00;94184.78;5055402;28;20205;-65
2021/12/01 08:39:36;;;;;;;1.00;0.80;;;;;;;9.26;100.00;94183.44;5055099;28;20565;-65
2021/12/01 08:42:02;;;;;;;1.03;0.97;;;;;;;9.54;100.00;94171.88;5055875;28;20196;-48
2021/12/01 08:44:27;;;;;;;1.30;1.00;;;;;;;10.05;100.00;94173.72;5055045;28;20198;-66
2021/12/01 08:46:53;;;;;;;0.90;0.90;;;;;;;10.46;100.00;94177.72;5055858;28;20198;-59
2021/12/01 08:49:18;;;;;;;0.80;0.80;;;;;;;10.81;100.00;94179.47;5054894;28;20222;-58
2021/12/01 08:51:43;;;;;;;0.90;0.80;;;;;;;11.37;100.00;94170.31;5055402;28;20196;-59
2021/12/01 08:54:13;;;;;;;1.10;0.97;;;;;;;11.80;100.00;94172.50;5055313;28;20246;-58
2021/12/01 08:56:41;;;;;;;0.60;0.60;;;;;;;12.29;100.00;94176.31;5054824;28;20178;-59
2021/12/01 08:59:07;;;;;;;2.40;2.07;;;;;;;12.38;100.00;94173.63;5055087;28;20328;-59
2021/12/01 09:01:32;;;;;;;1.10;1.00;;;;;;;12.13;100.00;94162.78;5054824;28;20228;-63
2021/12/01 09:03:58;;;;;;;1.87;1.50;;;;;;;11.02;100.00;94171.41;5054693;28;20201;-62
2021/12/01 09:06:23;;;;;;;1.47;1.20;;;;;;;10.22;100.00;94170.97;5054654;28;20205;-61
2021/12/01 09:08:48;;;;;;;1.40;1.20;;;;;;;10.50;100.00;94159.28;5054686;28;20198;-61
2021/12/01 09:11:14;;;;;;;2.90;1.80;;;;;;;10.26;100.00;94156.03;5054870;28;20288;-61
2021/12/01 09:13:39;;;;;;;1.57;1.43;;;;;;;10.82;100.00;94153.69;5054889;28;20220;-61
2021/12/01 09:16:05;;;;;;;2.10;1.00;;;;;;;11.08;100.00;94155.25;5054253;28;20204;-61
2021/12/01 09:18:31;;;;;;;0.73;0.73;;;;;;;10.91;100.00;94156.53;5053906;28;20219;-61
2021/12/01 09:20:57;;;;;;;2.07;1.00;;;;;;;11.27;100.00;94165.19;5053871;28;20244;-60
2021/12/01 09:23:23;;;;;;;2.33;2.13;;;;;;;12.07;100.00;94162.59;5054821;28;20194;-58
2021/12/01 09:25:49;;;;;;;0.80;0.80;;;;;;;12.53;100.00;94158.25;5054625;28;20212;-59
2021/12/01 09:28:18;;;;;;;1.43;0.80;;;;;;;12.84;100.00;94161.81;5055158;28;20235;-56
2021/12/01 09:30:44;;;;;;;0.80;0.80;;;;;;;13.02;100.00;94162.72;5054329;28;20236;-58
2021/12/01 09:33:10;;;;;;;0.97;0.80;;;;;;;12.87;100.00;94166.38;5054669;28;20208;-58
2021/12/01 09:35:36;;;;;;;1.00;0.80;;;;;;;13.47;100.00;94164.13;5054230;28;20206;-58
2021/12/01 09:38:01;;;;;;;0.80;0.80;;;;;;;13.70;100.00;94156.16;5054581;28;20202;-61
2021/12/01 09:40:26;;;;;;;1.17;0.80;;;;;;;12.82;100.00;94158.75;5054294;28;20225;-59
2021/12/01 09:42:54;;;;;;;1.33;0.80;;;;;;;12.04;100.00;94158.00;5054144;28;20193;-57
2021/12/01 09:45:23;;;;;;;1.20;1.10;;;;;;;11.44;100.00;94152.94;5053847;28;20280;-56
2021/12/01 09:47:50;;;;;;;1.30;1.20;;;;;;;10.76;100.00;94158.91;5053908;28;20185;-57
2021/12/01 09:50:16;;;;;;;1.03;0.93;;;;;;;10.39;100.00;94156.84;5054053;28;20215;-57
2021/12/01 09:52:41;;;;;;;1.30;1.17;;;;;;;10.17;100.00;94145.00;5054074;28;20201;-58
2021/12/01 09:55:08;;;;;;;0.70;0.70;;;;;;;10.34;100.00;94151.91;5053750;28;20213;-57
2021/12/01 09:57:34;;;;;;;0.67;0.67;;;;;;;11.25;100.00;94134.81;5053766;28;20169;-58
2021/12/01 09:59:59;;;;;;;0.77;0.77;;;;;;;11.84;100.00;94118.44;5054089;28;20212;-58
2021/12/01 10:02:25;;;;;;;0.50;0.50;;;;;;;11.65;100.00;94119.47;5053780;28;20213;-57
2021/12/01 10:04:51;;;;;;;0.80;0.80;;;;;;;12.34;100.00;94104.56;5054070;28;20280;-59
2021/12/01 10:07:22;;;;;;;0.67;0.67;;;;;;;12.79;100.00;94089.16;5053467;28;20216;-59
2021/12/01 10:09:52;;;;;;;0.90;0.90;;;;;;;12.73;100.00;94101.16;5053567;28;20205;-58
2021/12/01 10:12:17;;;;;;;1.30;1.03;;;;;;;13.60;100.00;94110.69;5053730;28;20217;-57
2021/12/01 10:14:45;;;;;;;2.37;1.40;;;;;;;14.09;97.36;94091.41;5053217;28;20289;-58
2021/12/01 10:17:11;;;;;;;0.80;0.70;;;;;;;14.27;89.63;94072.94;5053549;28;20217;-61
2021/12/01 10:19:36;;;;;;;0.90;0.90;;;;;;;14.57;87.67;94079.50;5053432;28;20214;-60
2021/12/01 10:22:09;;;;;;;1.50;1.30;;;;;;;14.91;86.24;94066.13;5053497;28;20198;-61
2021/12/01 10:24:36;;;;;;;1.60;0.60;;;;;;;15.31;84.90;94050.06;5053666;28;20174;-60
2021/12/01 10:27:09;;;;;;;0.80;0.80;;;;;;;14.42;84.73;94046.38;5052858;28;20193;-61
2021/12/01 10:29:50;;;;;;;3.33;0.67;;;;;;;13.95;89.52;94059.06;5053316;28;20197;-60
2021/12/01 10:32:18;;;;;;;0.83;0.80;;;;;;;13.37;92.63;94034.47;5053009;28;20212;-57
2021/12/01 10:34:47;;;;;;;0.60;0.60;;;;;;;13.09;94.87;94030.09;5053047;28;20207;-61
2021/12/01 10:37:31;;;;;;;1.83;0.87;;;;;;;12.76;97.83;94023.56;5053356;28;20197;-49
2021/12/01 10:40:21;;;;;;;1.13;0.83;;;;;;;12.43;99.58;94011.53;5053473;28;20212;-48
2021/12/01 10:42:58;;;;;;;0.70;0.60;;;;;;;12.41;99.71;94011.97;5053141;28;20201;-46
2021/12/01 10:45:31;;;;;;;0.83;0.80;;;;;;;12.12;100.00;94002.53;5053178;28;20189;-52
2021/12/01 10:47:57;;;;;;;0.60;0.60;;;;;;;11.86;100.00;93995.66;5053165;28;20197;-48
2021/12/01 10:50:27;;;;;;;0.70;0.70;;;;;;;11.59;100.00;93987.22;5053311;28;20232;-49
2021/12/01 10:53:01;;;;;;;0.50;0.50;;;;;;;11.30;100.00;93983.94;5052832;28;20229;-46
2021/12/01 10:55:27;;;;;;;0.70;0.70;;;;;;;11.18;100.00;93979.28;5053150;28;20279;-55
2021/12/01 10:57:57;;;;;;;0.50;0.50;;;;;;;11.24;100.00;93977.50;5053291;28;20246;-59
2021/12/01 11:00:26;;;;;;;0.60;0.60;;;;;;;11.12;100.00;93965.41;5052182;28;20205;-59
2021/12/01 11:02:52;;;;;;;3.70;1.10;;;;;;;11.11;100.00;93952.19;5053181;28;20226;-59
2021/12/01 11:05:26;;;;;;;0.73;0.60;;;;;;;10.93;100.00;93958.22;5053056;28;20196;-58
2021/12/01 11:07:52;;;;;;;0.80;0.70;;;;;;;10.83;100.00;93953.13;5052894;28;20194;-58
2021/12/01 11:10:24;;;;;;;0.97;0.90;;;;;;;10.72;100.00;93953.47;5052726;28;20205;-55
2021/12/01 11:12:57;;;;;;;0.63;0.60;;;;;;;10.73;100.00;93940.56;5052800;28;20207;-57
2021/12/01 11:15:29;;;;;;;1.03;0.70;;;;;;;10.73;100.00;93927.69;5052932;28;20291;-57
2021/12/01 11:17:55;;;;;;;14.73;10.10;;;;;;;10.74;100.00;93923.00;5052713;28;20202;-52
2021/12/01 11:20:41;;;;;;;1.80;0.83;;;;;;;10.76;100.00;93912.41;5052362;28;20245;-56
2021/12/01 11:23:23;;;;;;;0.77;0.60;;;;;;;10.68;100.00;93919.31;5052680;28;20267;-58
2021/12/01 11:26:16;;;;;;;0.80;0.60;;;;;;;10.67;100.00;93910.34;5052392;28;20257;-57
2021/12/01 11:28:48;;;;;;;1.30;1.10;;;;;;;10.56;100.00;93911.91;5052860;28;20194;-50
2021/12/01 11:31:21;;;;;;;1.20;1.00;;;;;;;10.50;100.00;93908.19;5052416;28;20194;-59
2021/12/01 11:33:48;;;;;;;1.10;0.70;;;;;;;10.43;100.00;93908.41;5052268;28;20209;-58
2021/12/01 11:36:20;;;;;;;0.80;0.80;;;;;;;10.42;100.00;93907.66;5052552;28;20193;-58
2021/12/01 11:38:54;;;;;;;4.83;0.80;;;;;;;10.32;100.00;93899.78;5052655;28;20220;-63